sensor_id;sensor_type;location;lat;lon;timestamp;P1;durP1;ratioP1;P2;durP2;ratioP2
10170;SDS011;5127;50.922;6.988;2022-10-16T00:01:26;1.27;;;0.70;;
10170;SDS011;5127;50.922;6.988;2022-10-16T00:03:55;1.10;;;0.80;;
10170;SDS011;5127;50.922;6.988;2022-10-16T00:06:23;2.90;;;0.90;;
10170;SDS011;5127;50.922;6.988;2022-10-16T00:08:53;2.63;;;0.80;;
10170;SDS011;5127;50.922;6.988;2022-10-16T00:11:21;1.10;;;0.90;;
10170;SDS011;5127;50.922;6.988;2022-10-16T00:13:51;0.90;;;0.80;;
10170;SDS011;5127;50.922;6.988;2022-10-16T00:16:21;1.57;;;0.97;;
10170;SDS011;5127;50.922;6.988;2022-10-16T00:18:48;1.53;;;0.77;;
10170;SDS011;5127;50.922;6.988;2022-10-16T00:21:17;0.70;;;0.70;;
10170;SDS011;5127;50.922;6.988;2022-10-16T00:23:45;0.50;;;0.50;;
10170;SDS011;5127;50.922;6.988;2022-10-16T00:26:15;2.00;;;0.70;;
10170;SDS011;5127;50.922;6.988;2022-10-16T00:28:45;0.70;;;0.70;;
10170;SDS011;5127;50.922;6.988;2022-10-16T00:31:12;2.00;;;0.80;;
10170;SDS011;5127;50.922;6.988;2022-10-16T00:33:40;0.80;;;0.60;;
10170;SDS011;5127;50.922;6.988;2022-10-16T00:36:09;1.33;;;0.77;;
10170;SDS011;5127;50.922;6.988;2022-10-16T00:38:38;0.70;;;0.70;;
10170;SDS011;5127;50.922;6.988;2022-10-16T00:41:06;0.70;;;0.70;;
10170;SDS011;5127;50.922;6.988;2022-10-16T00:43:39;0.50;;;0.50;;
10170;SDS011;5127;50.922;6.988;2022-10-16T00:46:15;0.70;;;0.63;;
10170;SDS011;5127;50.922;6.988;2022-10-16T00:48:47;0.87;;;0.60;;
10170;SDS011;5127;50.922;6.988;2022-10-16T00:51:19;0.50;;;0.50;;
10170;SDS011;5127;50.922;6.988;2022-10-16T00:53:50;1.07;;;0.70;;
10170;SDS011;5127;50.922;6.988;2022-10-16T00:56:18;1.07;;;0.70;;
10170;SDS011;5127;50.922;6.988;2022-10-16T00:58:47;0.60;;;0.60;;
10170;SDS011;5127;50.922;6.988;2022-10-16T01:01:14;1.83;;;0.80;;
10170;SDS011;5127;50.922;6.988;2022-10-16T01:03:42;0.63;;;0.50;;
10170;SDS011;5127;50.922;6.988;2022-10-16T01:06:20;0.63;;;0.60;;
10170;SDS011;5127;50.922;6.988;2022-10-16T01:08:56;0.53;;;0.50;;
10170;SDS011;5127;50.922;6.988;2022-10-16T01:11:32;0.60;;;0.60;;
10170;SDS011;5127;50.922;6.988;2022-10-16T01:14:06;1.57;;;0.60;;
10170;SDS011;5127;50.922;6.988;2022-10-16T01:16:42;0.63;;;0.63;;
10170;SDS011;5127;50.922;6.988;2022-10-16T01:19:16;2.23;;;0.90;;
10170;SDS011;5127;50.922;6.988;2022-10-16T01:21:52;0.60;;;0.60;;
10170;SDS011;5127;50.922;6.988;2022-10-16T01:24:25;0.77;;;0.77;;
10170;SDS011;5127;50.922;6.988;2022-10-16T01:27:10;3.03;;;0.80;;
10170;SDS011;5127;50.922;6.988;2022-10-16T01:29:41;0.63;;;0.63;;
10170;SDS011;5127;50.922;6.988;2022-10-16T01:32:16;0.60;;;0.60;;
10170;SDS011;5127;50.922;6.988;2022-10-16T01:34:48;2.00;;;0.50;;
10170;SDS011;5127;50.922;6.988;2022-10-16T01:37:22;0.50;;;0.50;;
10170;SDS011;5127;50.922;6.988;2022-10-16T01:39:55;0.43;;;0.43;;
10170;SDS011;5127;50.922;6.988;2022-10-16T01:42:29;0.63;;;0.63;;
10170;SDS011;5127;50.922;6.988;2022-10-16T01:45:00;0.77;;;0.77;;
10170;SDS011;5127;50.922;6.988;2022-10-16T01:47:32;0.40;;;0.40;;
10170;SDS011;5127;50.922;6.988;2022-10-16T01:50:02;0.97;;;0.57;;
10170;SDS011;5127;50.922;6.988;2022-10-16T01:52:32;2.37;;;0.60;;
10170;SDS011;5127;50.922;6.988;2022-10-16T01:55:02;0.93;;;0.80;;
10170;SDS011;5127;50.922;6.988;2022-10-16T01:57:34;0.80;;;0.80;;
10170;SDS011;5127;50.922;6.988;2022-10-16T02:00:07;1.30;;;0.80;;
10170;SDS011;5127;50.922;6.988;2022-10-16T02:02:38;1.40;;;0.70;;
10170;SDS011;5127;50.922;6.988;2022-10-16T02:05:09;0.60;;;0.60;;
10170;SDS011;5127;50.922;6.988;2022-10-16T02:07:41;1.73;;;0.80;;
10170;SDS011;5127;50.922;6.988;2022-10-16T02:10:10;0.80;;;0.80;;
10170;SDS011;5127;50.922;6.988;2022-10-16T02:12:39;1.03;;;0.73;;
10170;SDS011;5127;50.922;6.988;2022-10-16T02:15:11;0.87;;;0.87;;
10170;SDS011;5127;50.922;6.988;2022-10-16T02:17:38;0.80;;;0.80;;
10170;SDS011;5127;50.922;6.988;2022-10-16T02:20:05;1.40;;;1.00;;
10170;SDS011;5127;50.922;6.988;2022-10-16T02:22:34;1.07;;;0.77;;
10170;SDS011;5127;50.922;6.988;2022-10-16T02:25:06;1.07;;;0.70;;
10170;SDS011;5127;50.922;6.988;2022-10-16T02:27:38;2.10;;;0.90;;
10170;SDS011;5127;50.922;6.988;2022-10-16T02:30:13;1.30;;;0.90;;
10170;SDS011;5127;50.922;6.988;2022-10-16T02:32:44;1.00;;;0.90;;
10170;SDS011;5127;50.922;6.988;2022-10-16T02:35:14;1.10;;;1.00;;
10170;SDS011;5127;50.922;6.988;2022-10-16T02:37:43;0.87;;;0.70;;
10170;SDS011;5127;50.922;6.988;2022-10-16T02:40:11;1.80;;;0.93;;
10170;SDS011;5127;50.922;6.988;2022-10-16T02:42:39;1.13;;;0.60;;
10170;SDS011;5127;50.922;6.988;2022-10-16T02:45:10;1.10;;;0.80;;
10170;SDS011;5127;50.922;6.988;2022-10-16T02:47:38;2.07;;;0.70;;
10170;SDS011;5127;50.922;6.988;2022-10-16T02:50:05;0.70;;;0.70;;
10170;SDS011;5127;50.922;6.988;2022-10-16T02:52:33;0.60;;;0.60;;
10170;SDS011;5127;50.922;6.988;2022-10-16T02:55:00;0.70;;;0.70;;
10170;SDS011;5127;50.922;6.988;2022-10-16T02:57:27;0.90;;;0.67;;
10170;SDS011;5127;50.922;6.988;2022-10-16T02:59:55;0.60;;;0.60;;
10170;SDS011;5127;50.922;6.988;2022-10-16T03:02:24;0.50;;;0.50;;
10170;SDS011;5127;50.922;6.988;2022-10-16T03:04:51;0.80;;;0.80;;
10170;SDS011;5127;50.922;6.988;2022-10-16T03:07:19;0.90;;;0.80;;
10170;SDS011;5127;50.922;6.988;2022-10-16T03:09:46;0.70;;;0.70;;
10170;SDS011;5127;50.922;6.988;2022-10-16T03:12:13;0.70;;;0.70;;
10170;SDS011;5127;50.922;6.988;2022-10-16T03:14:40;3.40;;;0.70;;
10170;SDS011;5127;50.922;6.988;2022-10-16T03:17:07;0.80;;;0.80;;
10170;SDS011;5127;50.922;6.988;2022-10-16T03:19:36;1.43;;;0.90;;
10170;SDS011;5127;50.922;6.988;2022-10-16T03:22:03;1.20;;;1.10;;
10170;SDS011;5127;50.922;6.988;2022-10-16T03:24:30;1.43;;;1.33;;
10170;SDS011;5127;50.922;6.988;2022-10-16T03:26:58;2.17;;;2.07;;
10170;SDS011;5127;50.922;6.988;2022-10-16T03:29:25;2.00;;;1.80;;
10170;SDS011;5127;50.922;6.988;2022-10-16T03:31:54;2.17;;;1.10;;
10170;SDS011;5127;50.922;6.988;2022-10-16T03:34:22;1.77;;;0.80;;
10170;SDS011;5127;50.922;6.988;2022-10-16T03:36:51;0.40;;;0.40;;
10170;SDS011;5127;50.922;6.988;2022-10-16T03:39:18;0.70;;;0.70;;
10170;SDS011;5127;50.922;6.988;2022-10-16T03:41:46;0.50;;;0.50;;
10170;SDS011;5127;50.922;6.988;2022-10-16T03:44:13;0.73;;;0.70;;
10170;SDS011;5127;50.922;6.988;2022-10-16T03:46:40;0.60;;;0.60;;
10170;SDS011;5127;50.922;6.988;2022-10-16T03:49:08;0.67;;;0.67;;
10170;SDS011;5127;50.922;6.988;2022-10-16T03:51:35;0.40;;;0.40;;
10170;SDS011;5127;50.922;6.988;2022-10-16T03:54:04;0.60;;;0.60;;
10170;SDS011;5127;50.922;6.988;2022-10-16T03:56:31;1.23;;;0.70;;
10170;SDS011;5127;50.922;6.988;2022-10-16T03:58:58;0.50;;;0.50;;
10170;SDS011;5127;50.922;6.988;2022-10-16T04:01:25;0.60;;;0.60;;
10170;SDS011;5127;50.922;6.988;2022-10-16T04:03:53;0.50;;;0.50;;
10170;SDS011;5127;50.922;6.988;2022-10-16T04:06:20;0.50;;;0.50;;
10170;SDS011;5127;50.922;6.988;2022-10-16T04:08:47;0.40;;;0.40;;
10170;SDS011;5127;50.922;6.988;2022-10-16T04:11:16;0.50;;;0.50;;
10170;SDS011;5127;50.922;6.988;2022-10-16T04:13:43;0.60;;;0.60;;
10170;SDS011;5127;50.922;6.988;2022-10-16T04:16:10;0.93;;;0.50;;
10170;SDS011;5127;50.922;6.988;2022-10-16T04:18:37;1.33;;;0.70;;
10170;SDS011;5127;50.922;6.988;2022-10-16T04:21:05;0.97;;;0.50;;
10170;SDS011;5127;50.922;6.988;2022-10-16T04:23:33;0.50;;;0.50;;
10170;SDS011;5127;50.922;6.988;2022-10-16T04:26:00;1.20;;;0.60;;
10170;SDS011;5127;50.922;6.988;2022-10-16T04:28:29;0.70;;;0.50;;
10170;SDS011;5127;50.922;6.988;2022-10-16T04:30:56;1.50;;;0.60;;
10170;SDS011;5127;50.922;6.988;2022-10-16T04:33:23;0.80;;;0.50;;
10170;SDS011;5127;50.922;6.988;2022-10-16T04:35:55;0.77;;;0.60;;
10170;SDS011;5127;50.922;6.988;2022-10-16T04:38:23;1.10;;;0.40;;
10170;SDS011;5127;50.922;6.988;2022-10-16T04:40:51;0.40;;;0.40;;
10170;SDS011;5127;50.922;6.988;2022-10-16T04:43:18;0.73;;;0.63;;
10170;SDS011;5127;50.922;6.988;2022-10-16T04:45:48;0.50;;;0.50;;
10170;SDS011;5127;50.922;6.988;2022-10-16T04:48:16;0.63;;;0.60;;
10170;SDS011;5127;50.922;6.988;2022-10-16T04:50:43;0.60;;;0.60;;
10170;SDS011;5127;50.922;6.988;2022-10-16T04:53:11;0.60;;;0.47;;
10170;SDS011;5127;50.922;6.988;2022-10-16T04:55:38;1.03;;;0.50;;
10170;SDS011;5127;50.922;6.988;2022-10-16T04:58:07;1.43;;;0.60;;
10170;SDS011;5127;50.922;6.988;2022-10-16T05:00:35;0.90;;;0.50;;
10170;SDS011;5127;50.922;6.988;2022-10-16T05:03:05;1.27;;;0.50;;
10170;SDS011;5127;50.922;6.988;2022-10-16T05:05:34;2.00;;;0.60;;
10170;SDS011;5127;50.922;6.988;2022-10-16T05:08:02;0.50;;;0.50;;
10170;SDS011;5127;50.922;6.988;2022-10-16T05:10:29;0.50;;;0.50;;
10170;SDS011;5127;50.922;6.988;2022-10-16T05:12:56;0.47;;;0.47;;
10170;SDS011;5127;50.922;6.988;2022-10-16T05:15:24;0.50;;;0.50;;
10170;SDS011;5127;50.922;6.988;2022-10-16T05:17:52;0.50;;;0.50;;
10170;SDS011;5127;50.922;6.988;2022-10-16T05:20:21;0.77;;;0.47;;
10170;SDS011;5127;50.922;6.988;2022-10-16T05:22:49;0.47;;;0.47;;
10170;SDS011;5127;50.922;6.988;2022-10-16T05:25:16;0.50;;;0.50;;
10170;SDS011;5127;50.922;6.988;2022-10-16T05:27:46;0.80;;;0.70;;
10170;SDS011;5127;50.922;6.988;2022-10-16T05:30:14;1.17;;;0.60;;
10170;SDS011;5127;50.922;6.988;2022-10-16T05:32:41;1.63;;;0.70;;
10170;SDS011;5127;50.922;6.988;2022-10-16T05:35:12;0.70;;;0.40;;
10170;SDS011;5127;50.922;6.988;2022-10-16T05:37:41;1.20;;;0.60;;
10170;SDS011;5127;50.922;6.988;2022-10-16T05:40:08;0.90;;;0.77;;
10170;SDS011;5127;50.922;6.988;2022-10-16T05:42:36;0.47;;;0.47;;
10170;SDS011;5127;50.922;6.988;2022-10-16T05:45:04;0.40;;;0.40;;
10170;SDS011;5127;50.922;6.988;2022-10-16T05:47:32;0.50;;;0.30;;
10170;SDS011;5127;50.922;6.988;2022-10-16T05:50:00;0.50;;;0.50;;
10170;SDS011;5127;50.922;6.988;2022-10-16T05:52:27;0.60;;;0.50;;
10170;SDS011;5127;50.922;6.988;2022-10-16T05:54:56;1.10;;;0.50;;
10170;SDS011;5127;50.922;6.988;2022-10-16T05:57:23;0.50;;;0.50;;
10170;SDS011;5127;50.922;6.988;2022-10-16T05:59:50;0.63;;;0.50;;
10170;SDS011;5127;50.922;6.988;2022-10-16T06:02:17;0.37;;;0.37;;
10170;SDS011;5127;50.922;6.988;2022-10-16T06:04:44;0.67;;;0.40;;
10170;SDS011;5127;50.922;6.988;2022-10-16T06:07:12;0.70;;;0.50;;
10170;SDS011;5127;50.922;6.988;2022-10-16T06:09:39;0.50;;;0.50;;
10170;SDS011;5127;50.922;6.988;2022-10-16T06:12:07;0.53;;;0.53;;
10170;SDS011;5127;50.922;6.988;2022-10-16T06:14:35;0.90;;;0.50;;
10170;SDS011;5127;50.922;6.988;2022-10-16T06:17:02;0.70;;;0.70;;
10170;SDS011;5127;50.922;6.988;2022-10-16T06:19:29;0.70;;;0.60;;
10170;SDS011;5127;50.922;6.988;2022-10-16T06:21:57;0.93;;;0.77;;
10170;SDS011;5127;50.922;6.988;2022-10-16T06:24:24;0.80;;;0.80;;
10170;SDS011;5127;50.922;6.988;2022-10-16T06:26:52;0.90;;;0.70;;
10170;SDS011;5127;50.922;6.988;2022-10-16T06:29:20;0.67;;;0.67;;
10170;SDS011;5127;50.922;6.988;2022-10-16T06:31:47;1.07;;;0.67;;
10170;SDS011;5127;50.922;6.988;2022-10-16T06:34:15;0.93;;;0.60;;
10170;SDS011;5127;50.922;6.988;2022-10-16T06:36:42;1.03;;;0.60;;
10170;SDS011;5127;50.922;6.988;2022-10-16T06:39:09;0.77;;;0.70;;
10170;SDS011;5127;50.922;6.988;2022-10-16T06:41:36;0.90;;;0.63;;
10170;SDS011;5127;50.922;6.988;2022-10-16T06:44:14;1.33;;;0.80;;
10170;SDS011;5127;50.922;6.988;2022-10-16T06:46:43;0.83;;;0.70;;
10170;SDS011;5127;50.922;6.988;2022-10-16T06:49:10;2.63;;;0.83;;
10170;SDS011;5127;50.922;6.988;2022-10-16T06:51:37;0.80;;;0.80;;
10170;SDS011;5127;50.922;6.988;2022-10-16T06:54:06;0.73;;;0.73;;
10170;SDS011;5127;50.922;6.988;2022-10-16T06:56:34;0.73;;;0.73;;
10170;SDS011;5127;50.922;6.988;2022-10-16T06:59:01;1.20;;;0.77;;
10170;SDS011;5127;50.922;6.988;2022-10-16T07:01:29;0.80;;;0.63;;
10170;SDS011;5127;50.922;6.988;2022-10-16T07:03:58;0.97;;;0.90;;
10170;SDS011;5127;50.922;6.988;2022-10-16T07:06:26;0.90;;;0.70;;
10170;SDS011;5127;50.922;6.988;2022-10-16T07:08:57;0.83;;;0.70;;
10170;SDS011;5127;50.922;6.988;2022-10-16T07:11:24;0.60;;;0.60;;
10170;SDS011;5127;50.922;6.988;2022-10-16T07:13:51;1.17;;;0.87;;
10170;SDS011;5127;50.922;6.988;2022-10-16T07:16:19;0.80;;;0.70;;
10170;SDS011;5127;50.922;6.988;2022-10-16T07:18:48;1.13;;;0.63;;
10170;SDS011;5127;50.922;6.988;2022-10-16T07:21:19;0.80;;;0.80;;
10170;SDS011;5127;50.922;6.988;2022-10-16T07:23:49;0.70;;;0.70;;
10170;SDS011;5127;50.922;6.988;2022-10-16T07:26:17;1.17;;;0.80;;
10170;SDS011;5127;50.922;6.988;2022-10-16T07:28:44;1.00;;;0.80;;
10170;SDS011;5127;50.922;6.988;2022-10-16T07:31:12;1.20;;;0.70;;
10170;SDS011;5127;50.922;6.988;2022-10-16T07:33:40;1.53;;;0.80;;
10170;SDS011;5127;50.922;6.988;2022-10-16T07:36:10;0.80;;;0.80;;
10170;SDS011;5127;50.922;6.988;2022-10-16T07:38:39;1.60;;;0.80;;
10170;SDS011;5127;50.922;6.988;2022-10-16T07:41:09;0.80;;;0.60;;
10170;SDS011;5127;50.922;6.988;2022-10-16T07:43:38;1.13;;;0.60;;
10170;SDS011;5127;50.922;6.988;2022-10-16T07:46:05;0.70;;;0.70;;
10170;SDS011;5127;50.922;6.988;2022-10-16T07:48:34;1.97;;;0.97;;
10170;SDS011;5127;50.922;6.988;2022-10-16T07:51:02;0.83;;;0.83;;
10170;SDS011;5127;50.922;6.988;2022-10-16T07:53:30;0.67;;;0.67;;
10170;SDS011;5127;50.922;6.988;2022-10-16T07:56:00;1.50;;;0.83;;
10170;SDS011;5127;50.922;6.988;2022-10-16T07:58:29;1.03;;;0.77;;
10170;SDS011;5127;50.922;6.988;2022-10-16T08:00:57;1.33;;;0.80;;
10170;SDS011;5127;50.922;6.988;2022-10-16T08:03:25;0.68;;;0.68;;
10170;SDS011;5127;50.922;6.988;2022-10-16T08:05:52;0.50;;;0.50;;
10170;SDS011;5127;50.922;6.988;2022-10-16T08:08:19;0.60;;;0.60;;
10170;SDS011;5127;50.922;6.988;2022-10-16T08:10:47;0.85;;;0.80;;
10170;SDS011;5127;50.922;6.988;2022-10-16T08:13:15;1.20;;;0.88;;
10170;SDS011;5127;50.922;6.988;2022-10-16T08:15:43;1.73;;;0.98;;
10170;SDS011;5127;50.922;6.988;2022-10-16T08:18:11;1.08;;;0.60;;
10170;SDS011;5127;50.922;6.988;2022-10-16T08:20:40;0.70;;;0.70;;
10170;SDS011;5127;50.922;6.988;2022-10-16T08:23:08;0.98;;;0.63;;
10170;SDS011;5127;50.922;6.988;2022-10-16T08:25:38;1.50;;;0.57;;
10170;SDS011;5127;50.922;6.988;2022-10-16T08:28:06;1.42;;;0.52;;
10170;SDS011;5127;50.922;6.988;2022-10-16T08:30:36;1.02;;;0.70;;
10170;SDS011;5127;50.922;6.988;2022-10-16T08:33:03;2.17;;;0.60;;
10170;SDS011;5127;50.922;6.988;2022-10-16T08:35:31;0.68;;;0.68;;
10170;SDS011;5127;50.922;6.988;2022-10-16T08:37:59;0.40;;;0.40;;
10170;SDS011;5127;50.922;6.988;2022-10-16T08:40:27;0.75;;;0.45;;
10170;SDS011;5127;50.922;6.988;2022-10-16T08:43:01;0.40;;;0.40;;
10170;SDS011;5127;50.922;6.988;2022-10-16T08:45:47;0.68;;;0.50;;
10170;SDS011;5127;50.922;6.988;2022-10-16T08:48:29;1.77;;;0.43;;
10170;SDS011;5127;50.922;6.988;2022-10-16T08:51:00;1.75;;;0.60;;
10170;SDS011;5127;50.922;6.988;2022-10-16T08:53:30;1.10;;;0.60;;
10170;SDS011;5127;50.922;6.988;2022-10-16T08:56:03;0.50;;;0.50;;
10170;SDS011;5127;50.922;6.988;2022-10-16T08:58:31;0.40;;;0.40;;
10170;SDS011;5127;50.922;6.988;2022-10-16T09:01:00;0.95;;;0.40;;
10170;SDS011;5127;50.922;6.988;2022-10-16T09:06:32;0.93;;;0.40;;
10170;SDS011;5127;50.922;6.988;2022-10-16T09:09:14;0.40;;;0.40;;
10170;SDS011;5127;50.922;6.988;2022-10-16T09:11:55;0.40;;;0.40;;
10170;SDS011;5127;50.922;6.988;2022-10-16T09:14:32;1.92;;;0.55;;
10170;SDS011;5127;50.922;6.988;2022-10-16T09:17:15;0.47;;;0.40;;
10170;SDS011;5127;50.922;6.988;2022-10-16T09:19:54;0.88;;;0.30;;
10170;SDS011;5127;50.922;6.988;2022-10-16T09:22:27;0.65;;;0.50;;
10170;SDS011;5127;50.922;6.988;2022-10-16T09:24:55;1.45;;;0.70;;
10170;SDS011;5127;50.922;6.988;2022-10-16T09:27:27;1.13;;;0.50;;
10170;SDS011;5127;50.922;6.988;2022-10-16T09:29:54;0.55;;;0.50;;
10170;SDS011;5127;50.922;6.988;2022-10-16T09:32:23;2.88;;;0.90;;
10170;SDS011;5127;50.922;6.988;2022-10-16T09:34:51;1.10;;;0.50;;
10170;SDS011;5127;50.922;6.988;2022-10-16T09:37:22;1.10;;;0.45;;
10170;SDS011;5127;50.922;6.988;2022-10-16T09:39:51;0.60;;;0.40;;
10170;SDS011;5127;50.922;6.988;2022-10-16T09:42:19;0.43;;;0.40;;
10170;SDS011;5127;50.922;6.988;2022-10-16T09:44:49;0.60;;;0.50;;
10170;SDS011;5127;50.922;6.988;2022-10-16T09:47:19;1.45;;;0.50;;
10170;SDS011;5127;50.922;6.988;2022-10-16T09:49:51;0.47;;;0.38;;
10170;SDS011;5127;50.922;6.988;2022-10-16T09:52:21;1.00;;;0.50;;
10170;SDS011;5127;50.922;6.988;2022-10-16T09:54:49;0.80;;;0.40;;
10170;SDS011;5127;50.922;6.988;2022-10-16T09:57:18;0.45;;;0.38;;
10170;SDS011;5127;50.922;6.988;2022-10-16T09:59:46;0.38;;;0.30;;
10170;SDS011;5127;50.922;6.988;2022-10-16T10:02:14;1.13;;;0.40;;
10170;SDS011;5127;50.922;6.988;2022-10-16T10:04:44;0.73;;;0.50;;
10170;SDS011;5127;50.922;6.988;2022-10-16T10:07:23;1.23;;;0.63;;
10170;SDS011;5127;50.922;6.988;2022-10-16T10:09:53;0.77;;;0.40;;
10170;SDS011;5127;50.922;6.988;2022-10-16T10:12:21;0.80;;;0.50;;
10170;SDS011;5127;50.922;6.988;2022-10-16T10:14:51;0.50;;;0.40;;
10170;SDS011;5127;50.922;6.988;2022-10-16T10:17:20;0.50;;;0.40;;
10170;SDS011;5127;50.922;6.988;2022-10-16T10:19:50;0.40;;;0.40;;
10170;SDS011;5127;50.922;6.988;2022-10-16T10:22:24;0.63;;;0.40;;
10170;SDS011;5127;50.922;6.988;2022-10-16T10:24:54;0.52;;;0.40;;
10170;SDS011;5127;50.922;6.988;2022-10-16T10:27:30;0.25;;;0.25;;
10170;SDS011;5127;50.922;6.988;2022-10-16T10:30:04;1.15;;;0.30;;
10170;SDS011;5127;50.922;6.988;2022-10-16T10:32:38;1.23;;;0.30;;
10170;SDS011;5127;50.922;6.988;2022-10-16T10:35:15;1.35;;;0.45;;
10170;SDS011;5127;50.922;6.988;2022-10-16T10:37:54;0.20;;;0.20;;
10170;SDS011;5127;50.922;6.988;2022-10-16T10:40:45;0.85;;;0.40;;
10170;SDS011;5127;50.922;6.988;2022-10-16T10:43:24;1.15;;;0.40;;
10170;SDS011;5127;50.922;6.988;2022-10-16T10:46:06;0.93;;;0.35;;
10170;SDS011;5127;50.922;6.988;2022-10-16T10:48:47;0.45;;;0.40;;
10170;SDS011;5127;50.922;6.988;2022-10-16T10:51:26;0.40;;;0.40;;
10170;SDS011;5127;50.922;6.988;2022-10-16T10:54:02;0.82;;;0.25;;
10170;SDS011;5127;50.922;6.988;2022-10-16T10:56:41;0.43;;;0.38;;
10170;SDS011;5127;50.922;6.988;2022-10-16T10:59:19;0.30;;;0.30;;
10170;SDS011;5127;50.922;6.988;2022-10-16T11:02:10;0.20;;;0.20;;
10170;SDS011;5127;50.922;6.988;2022-10-16T11:04:46;0.55;;;0.30;;
10170;SDS011;5127;50.922;6.988;2022-10-16T11:07:24;0.60;;;0.35;;
10170;SDS011;5127;50.922;6.988;2022-10-16T11:09:56;0.30;;;0.30;;
10170;SDS011;5127;50.922;6.988;2022-10-16T11:12:29;0.50;;;0.30;;
10170;SDS011;5127;50.922;6.988;2022-10-16T11:15:02;0.35;;;0.30;;
10170;SDS011;5127;50.922;6.988;2022-10-16T11:17:38;0.45;;;0.35;;
10170;SDS011;5127;50.922;6.988;2022-10-16T11:20:12;0.47;;;0.47;;
10170;SDS011;5127;50.922;6.988;2022-10-16T11:22:44;1.08;;;0.40;;
10170;SDS011;5127;50.922;6.988;2022-10-16T11:25:16;1.50;;;0.47;;
10170;SDS011;5127;50.922;6.988;2022-10-16T11:27:49;0.90;;;0.40;;
10170;SDS011;5127;50.922;6.988;2022-10-16T11:30:19;1.25;;;0.40;;
10170;SDS011;5127;50.922;6.988;2022-10-16T11:32:51;0.50;;;0.28;;
10170;SDS011;5127;50.922;6.988;2022-10-16T11:35:32;0.30;;;0.30;;
10170;SDS011;5127;50.922;6.988;2022-10-16T11:38:09;0.30;;;0.30;;
10170;SDS011;5127;50.922;6.988;2022-10-16T11:40:42;0.30;;;0.20;;
10170;SDS011;5127;50.922;6.988;2022-10-16T11:43:15;0.40;;;0.40;;
10170;SDS011;5127;50.922;6.988;2022-10-16T11:45:49;0.90;;;0.30;;
10170;SDS011;5127;50.922;6.988;2022-10-16T11:48:22;0.30;;;0.30;;
10170;SDS011;5127;50.922;6.988;2022-10-16T11:50:56;0.30;;;0.30;;
10170;SDS011;5127;50.922;6.988;2022-10-16T11:53:35;0.28;;;0.20;;
10170;SDS011;5127;50.922;6.988;2022-10-16T11:56:19;1.25;;;0.45;;
10170;SDS011;5127;50.922;6.988;2022-10-16T11:58:51;0.43;;;0.17;;
10170;SDS011;5127;50.922;6.988;2022-10-16T12:01:26;0.68;;;0.57;;
10170;SDS011;5127;50.922;6.988;2022-10-16T12:04:04;0.57;;;0.57;;
10170;SDS011;5127;50.922;6.988;2022-10-16T12:06:44;0.47;;;0.30;;
10170;SDS011;5127;50.922;6.988;2022-10-16T12:09:16;1.00;;;0.50;;
10170;SDS011;5127;50.922;6.988;2022-10-16T12:11:49;0.35;;;0.30;;
10170;SDS011;5127;50.922;6.988;2022-10-16T12:14:21;0.55;;;0.30;;
10170;SDS011;5127;50.922;6.988;2022-10-16T12:17:00;0.50;;;0.40;;
10170;SDS011;5127;50.922;6.988;2022-10-16T12:19:31;0.50;;;0.50;;
10170;SDS011;5127;50.922;6.988;2022-10-16T12:21:59;0.52;;;0.52;;
10170;SDS011;5127;50.922;6.988;2022-10-16T12:24:32;0.85;;;0.50;;
10170;SDS011;5127;50.922;6.988;2022-10-16T12:27:04;0.47;;;0.45;;
10170;SDS011;5127;50.922;6.988;2022-10-16T12:29:34;0.55;;;0.38;;
10170;SDS011;5127;50.922;6.988;2022-10-16T12:32:04;0.75;;;0.50;;
10170;SDS011;5127;50.922;6.988;2022-10-16T12:34:35;1.13;;;0.40;;
10170;SDS011;5127;50.922;6.988;2022-10-16T12:37:10;0.35;;;0.32;;
10170;SDS011;5127;50.922;6.988;2022-10-16T12:39:41;0.82;;;0.32;;
10170;SDS011;5127;50.922;6.988;2022-10-16T12:42:23;1.60;;;0.50;;
10170;SDS011;5127;50.922;6.988;2022-10-16T12:45:00;0.68;;;0.32;;
10170;SDS011;5127;50.922;6.988;2022-10-16T12:47:46;0.30;;;0.30;;
10170;SDS011;5127;50.922;6.988;2022-10-16T12:50:23;0.57;;;0.30;;
10170;SDS011;5127;50.922;6.988;2022-10-16T12:52:53;0.30;;;0.30;;
10170;SDS011;5127;50.922;6.988;2022-10-16T12:55:21;0.55;;;0.30;;
10170;SDS011;5127;50.922;6.988;2022-10-16T12:57:58;0.60;;;0.30;;
10170;SDS011;5127;50.922;6.988;2022-10-16T13:00:44;0.30;;;0.30;;
10170;SDS011;5127;50.922;6.988;2022-10-16T13:03:23;1.27;;;0.20;;
10170;SDS011;5127;50.922;6.988;2022-10-16T13:06:22;0.65;;;0.30;;
10170;SDS011;5127;50.922;6.988;2022-10-16T13:09:02;1.17;;;0.38;;
10170;SDS011;5127;50.922;6.988;2022-10-16T13:11:43;0.68;;;0.40;;
10170;SDS011;5127;50.922;6.988;2022-10-16T13:14:32;0.40;;;0.40;;
10170;SDS011;5127;50.922;6.988;2022-10-16T13:17:27;1.35;;;0.25;;
10170;SDS011;5127;50.922;6.988;2022-10-16T13:20:04;1.17;;;0.32;;
10170;SDS011;5127;50.922;6.988;2022-10-16T13:22:40;0.40;;;0.40;;
10170;SDS011;5127;50.922;6.988;2022-10-16T13:25:19;1.30;;;0.55;;
10170;SDS011;5127;50.922;6.988;2022-10-16T13:27:54;0.50;;;0.50;;
10170;SDS011;5127;50.922;6.988;2022-10-16T13:30:26;1.45;;;0.50;;
10170;SDS011;5127;50.922;6.988;2022-10-16T13:32:58;1.02;;;0.40;;
10170;SDS011;5127;50.922;6.988;2022-10-16T13:35:28;0.60;;;0.40;;
10170;SDS011;5127;50.922;6.988;2022-10-16T13:38:04;1.23;;;0.50;;
10170;SDS011;5127;50.922;6.988;2022-10-16T13:40:48;1.23;;;0.40;;
10170;SDS011;5127;50.922;6.988;2022-10-16T13:43:16;1.25;;;0.50;;
10170;SDS011;5127;50.922;6.988;2022-10-16T13:45:53;0.50;;;0.35;;
10170;SDS011;5127;50.922;6.988;2022-10-16T13:48:22;0.57;;;0.28;;
10170;SDS011;5127;50.922;6.988;2022-10-16T13:50:59;0.40;;;0.30;;
10170;SDS011;5127;50.922;6.988;2022-10-16T13:53:27;1.40;;;0.47;;
10170;SDS011;5127;50.922;6.988;2022-10-16T13:55:57;1.13;;;0.32;;
10170;SDS011;5127;50.922;6.988;2022-10-16T13:58:26;0.20;;;0.20;;
10170;SDS011;5127;50.922;6.988;2022-10-16T14:00:56;1.92;;;0.28;;
10170;SDS011;5127;50.922;6.988;2022-10-16T14:03:26;1.52;;;0.50;;
10170;SDS011;5127;50.922;6.988;2022-10-16T14:05:56;0.50;;;0.40;;
10170;SDS011;5127;50.922;6.988;2022-10-16T14:08:27;0.35;;;0.30;;
10170;SDS011;5127;50.922;6.988;2022-10-16T14:10:56;0.60;;;0.40;;
10170;SDS011;5127;50.922;6.988;2022-10-16T14:13:28;0.65;;;0.45;;
10170;SDS011;5127;50.922;6.988;2022-10-16T14:15:59;0.38;;;0.30;;
10170;SDS011;5127;50.922;6.988;2022-10-16T14:18:32;0.73;;;0.30;;
10170;SDS011;5127;50.922;6.988;2022-10-16T14:21:04;0.80;;;0.30;;
10170;SDS011;5127;50.922;6.988;2022-10-16T14:23:34;0.80;;;0.30;;
10170;SDS011;5127;50.922;6.988;2022-10-16T14:26:11;0.25;;;0.20;;
10170;SDS011;5127;50.922;6.988;2022-10-16T14:28:40;1.05;;;0.40;;
10170;SDS011;5127;50.922;6.988;2022-10-16T14:36:53;2.25;;;0.60;;
10170;SDS011;5127;50.922;6.988;2022-10-16T14:39:21;0.32;;;0.32;;
10170;SDS011;5127;50.922;6.988;2022-10-16T14:41:51;0.40;;;0.40;;
10170;SDS011;5127;50.922;6.988;2022-10-16T14:44:19;0.30;;;0.30;;
10170;SDS011;5127;50.922;6.988;2022-10-16T14:46:51;0.77;;;0.50;;
10170;SDS011;5127;50.922;6.988;2022-10-16T14:49:19;2.75;;;0.50;;
10170;SDS011;5127;50.922;6.988;2022-10-16T14:51:48;4.00;;;2.70;;
10170;SDS011;5127;50.922;6.988;2022-10-16T14:54:16;2.97;;;2.10;;
10170;SDS011;5127;50.922;6.988;2022-10-16T14:56:45;1.92;;;1.52;;
10170;SDS011;5127;50.922;6.988;2022-10-16T14:59:16;2.60;;;1.20;;
10170;SDS011;5127;50.922;6.988;2022-10-16T15:01:46;0.73;;;0.73;;
10170;SDS011;5127;50.922;6.988;2022-10-16T15:04:14;0.50;;;0.40;;
10170;SDS011;5127;50.922;6.988;2022-10-16T15:06:43;0.60;;;0.60;;
10170;SDS011;5127;50.922;6.988;2022-10-16T15:09:10;0.88;;;0.88;;
10170;SDS011;5127;50.922;6.988;2022-10-16T15:11:38;0.68;;;0.50;;
10170;SDS011;5127;50.922;6.988;2022-10-16T15:14:05;0.98;;;0.50;;
10170;SDS011;5127;50.922;6.988;2022-10-16T15:16:35;0.60;;;0.60;;
10170;SDS011;5127;50.922;6.988;2022-10-16T15:19:02;1.40;;;1.20;;
10170;SDS011;5127;50.922;6.988;2022-10-16T15:21:32;1.55;;;1.42;;
10170;SDS011;5127;50.922;6.988;2022-10-16T15:23:59;2.88;;;2.67;;
10170;SDS011;5127;50.922;6.988;2022-10-16T15:26:28;2.17;;;2.00;;
10170;SDS011;5127;50.922;6.988;2022-10-16T15:28:56;1.80;;;1.70;;
10170;SDS011;5127;50.922;6.988;2022-10-16T15:31:24;1.35;;;1.25;;